AVSS123 SPJC-SPZO
Flight info
| Callsign | AVSS123 |
|---|---|
| Flight time | 0h 54m |
| Altitude | 33000 |
| Route | PAKOL UM668 DARKI |
| Aircraft | A320/M-SDE3FGHIRWY/LB1 |
Departure
| Time | 2026-04-30 20:41 |
|---|---|
| Airport | Jorge Chávez International Airport (SPJC) |
Arrival
| Time | 2026-04-30 21:35 |
|---|---|
| Airport | Alejandro Velasco Astete International Airport (SPZO) |
| Time | Latitude | Longitude | Altitude | Speed | Heading |
|---|---|---|---|---|---|
| 2026-04-30 19:48 | -12.02524 | -77.11930 | 80 ft | 0 kts | 64° |
| 2026-04-30 20:26 | -12.02528 | -77.11938 | 80 ft | 1 kts | 63° |
| 2026-04-30 20:26 | -12.02533 | -77.11950 | 84 ft | 1 kts | 52° |
| 2026-04-30 20:26 | -12.02537 | -77.11955 | 84 ft | 1 kts | 41° |
| 2026-04-30 20:27 | -12.02559 | -77.11971 | 84 ft | 2 kts | 28° |
| 2026-04-30 20:27 | -12.02590 | -77.11985 | 83 ft | 3 kts | 6° |
| 2026-04-30 20:28 | -12.02600 | -77.11985 | 82 ft | 0 kts | 353° |
| 2026-04-30 20:30 | -12.02597 | -77.11986 | 82 ft | 0 kts | 353° |
| 2026-04-30 20:31 | -12.02570 | -77.11991 | 85 ft | 6 kts | 335° |
| 2026-04-30 20:32 | -12.02586 | -77.12171 | 68 ft | 9 kts | 298° |
| 2026-04-30 20:32 | -12.02433 | -77.12251 | 61 ft | 15 kts | 331° |
| 2026-04-30 20:33 | -12.02320 | -77.12308 | 54 ft | 19 kts | 337° |
| 2026-04-30 20:33 | -12.02163 | -77.12300 | 55 ft | 7 kts | 75° |
| 2026-04-30 20:33 | -12.02148 | -77.12261 | 50 ft | 9 kts | 64° |
| 2026-04-30 20:34 | -12.02045 | -77.12050 | 60 ft | 16 kts | 63° |
| 2026-04-30 20:34 | -12.01921 | -77.11798 | 65 ft | 23 kts | 60° |
| 2026-04-30 20:35 | -12.01815 | -77.11787 | 65 ft | 15 kts | 335° |
| 2026-04-30 20:35 | -12.01712 | -77.11839 | 63 ft | 18 kts | 332° |
| 2026-04-30 20:35 | -12.01455 | -77.11971 | 60 ft | 25 kts | 333° |
| 2026-04-30 20:36 | -12.01287 | -77.12065 | 56 ft | 29 kts | 321° |
| 2026-04-30 20:36 | -12.01157 | -77.12185 | 55 ft | 20 kts | 331° |
| 2026-04-30 20:36 | -12.00938 | -77.12292 | 51 ft | 0 kts | 335° |
| 2026-04-30 20:39 | -12.00923 | -77.12299 | 49 ft | 2 kts | 335° |
| 2026-04-30 20:39 | -12.00879 | -77.12311 | 51 ft | 11 kts | 8° |
| 2026-04-30 20:39 | -12.00833 | -77.12259 | 52 ft | 9 kts | 63° |
| 2026-04-30 20:40 | -12.00798 | -77.12125 | 52 ft | 8 kts | 110° |
| 2026-04-30 20:40 | -12.00871 | -77.12085 | 52 ft | 23 kts | 156° |
| 2026-04-30 20:40 | -12.01237 | -77.11906 | 59 ft | 93 kts | 154° |
| 2026-04-30 20:41 | -12.02998 | -77.11006 | 442 ft | 167 kts | 155° |
| 2026-04-30 20:41 | -12.04057 | -77.10464 | 1050 ft | 174 kts | 154° |
| 2026-04-30 20:41 | -12.05191 | -77.09888 | 1491 ft | 194 kts | 154° |
| 2026-04-30 20:41 | -12.06498 | -77.09237 | 1726 ft | 224 kts | 154° |
| 2026-04-30 20:42 | -12.07990 | -77.08499 | 2185 ft | 251 kts | 154° |
| 2026-04-30 20:42 | -12.09616 | -77.07707 | 2941 ft | 264 kts | 154° |
| 2026-04-30 20:42 | -12.13041 | -77.06054 | 4657 ft | 279 kts | 155° |
| 2026-04-30 20:43 | -12.14811 | -77.05194 | 5474 ft | 284 kts | 154° |
| 2026-04-30 20:43 | -12.16610 | -77.04315 | 6316 ft | 289 kts | 154° |
| 2026-04-30 20:43 | -12.18434 | -77.03418 | 7130 ft | 292 kts | 154° |
| 2026-04-30 20:44 | -12.22129 | -77.01580 | 8812 ft | 299 kts | 152° |
| 2026-04-30 20:44 | -12.23816 | -77.00328 | 9610 ft | 302 kts | 135° |
| 2026-04-30 20:44 | -12.26107 | -76.96657 | 10746 ft | 323 kts | 116° |
| 2026-04-30 20:45 | -12.28179 | -76.92353 | 11784 ft | 344 kts | 116° |
| 2026-04-30 20:45 | -12.29235 | -76.90151 | 12514 ft | 346 kts | 117° |
| 2026-04-30 20:45 | -12.30285 | -76.87966 | 13239 ft | 348 kts | 117° |
| 2026-04-30 20:46 | -12.33538 | -76.81214 | 15146 ft | 357 kts | 116° |
| 2026-04-30 20:46 | -12.34642 | -76.78925 | 15762 ft | 360 kts | 116° |
| 2026-04-30 20:47 | -12.36881 | -76.74284 | 16937 ft | 367 kts | 115° |
| 2026-04-30 20:47 | -12.38014 | -76.71931 | 17525 ft | 371 kts | 115° |
| 2026-04-30 20:48 | -12.40313 | -76.67154 | 18620 ft | 378 kts | 115° |
| 2026-04-30 20:48 | -12.41477 | -76.64736 | 19135 ft | 381 kts | 115° |
| 2026-04-30 20:48 | -12.42654 | -76.62293 | 19627 ft | 384 kts | 115° |
| 2026-04-30 20:48 | -12.43843 | -76.59836 | 20124 ft | 388 kts | 115° |
| 2026-04-30 20:49 | -12.45046 | -76.57357 | 20617 ft | 391 kts | 116° |
| 2026-04-30 20:49 | -12.46262 | -76.54849 | 21118 ft | 394 kts | 115° |
| 2026-04-30 20:49 | -12.47484 | -76.52322 | 21583 ft | 397 kts | 115° |
| 2026-04-30 20:50 | -12.49941 | -76.47247 | 22511 ft | 404 kts | 116° |
| 2026-04-30 20:50 | -12.51210 | -76.44629 | 22981 ft | 408 kts | 116° |
| 2026-04-30 20:50 | -12.52476 | -76.42020 | 23436 ft | 411 kts | 116° |
| 2026-04-30 20:50 | -12.53753 | -76.39392 | 23838 ft | 414 kts | 116° |
| 2026-04-30 20:51 | -12.55028 | -76.36770 | 24199 ft | 418 kts | 116° |
| 2026-04-30 20:51 | -12.57628 | -76.31386 | 24891 ft | 426 kts | 116° |
| 2026-04-30 20:51 | -12.58944 | -76.28650 | 25256 ft | 429 kts | 116° |
| 2026-04-30 20:52 | -12.60264 | -76.25905 | 25623 ft | 432 kts | 116° |
| 2026-04-30 20:52 | -12.61602 | -76.23130 | 25989 ft | 435 kts | 116° |
| 2026-04-30 20:52 | -12.64310 | -76.17527 | 26731 ft | 442 kts | 116° |
| 2026-04-30 20:53 | -12.65679 | -76.14691 | 27083 ft | 445 kts | 116° |
| 2026-04-30 20:53 | -12.67055 | -76.11839 | 27435 ft | 449 kts | 116° |
| 2026-04-30 20:53 | -12.68440 | -76.08962 | 27775 ft | 452 kts | 116° |
| 2026-04-30 20:54 | -12.70788 | -76.04086 | 28341 ft | 458 kts | 116° |
| 2026-04-30 20:54 | -12.72660 | -76.00195 | 28781 ft | 462 kts | 115° |
| 2026-04-30 20:54 | -12.73602 | -75.98234 | 29006 ft | 464 kts | 115° |
| 2026-04-30 20:55 | -12.75555 | -75.91930 | 29630 ft | 468 kts | 103° |
| 2026-04-30 20:55 | -12.76324 | -75.88631 | 29955 ft | 472 kts | 102° |
| 2026-04-30 20:55 | -12.77082 | -75.85392 | 30278 ft | 475 kts | 102° |
| 2026-04-30 20:56 | -12.78630 | -75.78778 | 30889 ft | 479 kts | 102° |
| 2026-04-30 20:56 | -12.79411 | -75.75452 | 31178 ft | 481 kts | 102° |
| 2026-04-30 20:56 | -12.80987 | -75.68763 | 31768 ft | 484 kts | 102° |
| 2026-04-30 20:57 | -12.81772 | -75.65420 | 32178 ft | 482 kts | 102° |
| 2026-04-30 20:57 | -12.82551 | -75.62090 | 32557 ft | 481 kts | 101° |
| 2026-04-30 20:57 | -12.83327 | -75.58759 | 32960 ft | 480 kts | 101° |
| 2026-04-30 20:58 | -12.84873 | -75.52099 | 33736 ft | 478 kts | 101° |
| 2026-04-30 20:58 | -12.85634 | -75.48826 | 34101 ft | 478 kts | 101° |
| 2026-04-30 20:58 | -12.86404 | -75.45521 | 34430 ft | 477 kts | 101° |
| 2026-04-30 20:58 | -12.87182 | -75.42180 | 34758 ft | 476 kts | 101° |
| 2026-04-30 20:59 | -12.88710 | -75.35620 | 35081 ft | 472 kts | 101° |
| 2026-04-30 20:59 | -12.89469 | -75.32366 | 35094 ft | 467 kts | 101° |
| 2026-04-30 21:00 | -12.92470 | -75.19452 | 35087 ft | 465 kts | 100° |
| 2026-04-30 21:01 | -12.94706 | -75.09772 | 35082 ft | 465 kts | 101° |
| 2026-04-30 21:02 | -12.96956 | -75.00092 | 35072 ft | 465 kts | 101° |
| 2026-04-30 21:02 | -12.98439 | -74.93646 | 35059 ft | 465 kts | 100° |
| 2026-04-30 21:03 | -12.99924 | -74.87209 | 35048 ft | 464 kts | 101° |
| 2026-04-30 21:03 | -13.01412 | -74.80747 | 35046 ft | 464 kts | 101° |
| 2026-04-30 21:04 | -13.02894 | -74.74306 | 35035 ft | 464 kts | 101° |
| 2026-04-30 21:04 | -13.05090 | -74.64695 | 35011 ft | 464 kts | 101° |
| 2026-04-30 21:05 | -13.06577 | -74.58243 | 34999 ft | 463 kts | 101° |
| 2026-04-30 21:05 | -13.08058 | -74.51815 | 35039 ft | 463 kts | 100° |
| 2026-04-30 21:06 | -13.09524 | -74.45399 | 35100 ft | 462 kts | 100° |
| 2026-04-30 21:06 | -13.10986 | -74.38985 | 35167 ft | 462 kts | 100° |
| 2026-04-30 21:07 | -13.12444 | -74.32567 | 35239 ft | 462 kts | 100° |
| 2026-04-30 21:07 | -13.13905 | -74.26153 | 35272 ft | 461 kts | 100° |
| 2026-04-30 21:08 | -13.15362 | -74.19776 | 35271 ft | 461 kts | 100° |
| 2026-04-30 21:08 | -13.16822 | -74.13374 | 35272 ft | 461 kts | 100° |
| 2026-04-30 21:09 | -13.18279 | -74.06972 | 35223 ft | 461 kts | 100° |
| 2026-04-30 21:09 | -13.19731 | -74.00573 | 35156 ft | 460 kts | 100° |
| 2026-04-30 21:10 | -13.21177 | -73.94170 | 35090 ft | 460 kts | 99° |
| 2026-04-30 21:10 | -13.22616 | -73.87776 | 35027 ft | 460 kts | 100° |
| 2026-04-30 21:11 | -13.24070 | -73.81382 | 34986 ft | 459 kts | 100° |
| 2026-04-30 21:11 | -13.25518 | -73.74993 | 34986 ft | 460 kts | 99° |
| 2026-04-30 21:12 | -13.26961 | -73.68605 | 34985 ft | 459 kts | 99° |
| 2026-04-30 21:12 | -13.28391 | -73.62223 | 34981 ft | 459 kts | 99° |
| 2026-04-30 21:13 | -13.29819 | -73.55847 | 34975 ft | 457 kts | 99° |
| 2026-04-30 21:13 | -13.31249 | -73.49481 | 34980 ft | 459 kts | 99° |
| 2026-04-30 21:14 | -13.32687 | -73.43103 | 34983 ft | 458 kts | 100° |
| 2026-04-30 21:14 | -13.34122 | -73.36732 | 34984 ft | 457 kts | 100° |
| 2026-04-30 21:15 | -13.35536 | -73.30409 | 34995 ft | 458 kts | 100° |
| 2026-04-30 21:15 | -13.36955 | -73.24044 | 34995 ft | 457 kts | 100° |
| 2026-04-30 21:16 | -13.38377 | -73.17678 | 34999 ft | 456 kts | 100° |
| 2026-04-30 21:16 | -13.39791 | -73.11313 | 35009 ft | 457 kts | 100° |
| 2026-04-30 21:17 | -13.41208 | -73.04947 | 35011 ft | 457 kts | 100° |
| 2026-04-30 21:17 | -13.42625 | -72.98590 | 35015 ft | 457 kts | 100° |
| 2026-04-30 21:18 | -13.44039 | -72.92232 | 35023 ft | 457 kts | 100° |
| 2026-04-30 21:18 | -13.45462 | -72.85884 | 35030 ft | 454 kts | 101° |
| 2026-04-30 21:19 | -13.46227 | -72.82818 | 35037 ft | 441 kts | 102° |
| 2026-04-30 21:19 | -13.47039 | -72.79793 | 35033 ft | 427 kts | 103° |
| 2026-04-30 21:19 | -13.48624 | -72.74059 | 35035 ft | 417 kts | 103° |
| 2026-04-30 21:20 | -13.50169 | -72.68337 | 35036 ft | 415 kts | 102° |
| 2026-04-30 21:20 | -13.51682 | -72.62608 | 35032 ft | 415 kts | 102° |
| 2026-04-30 21:21 | -13.52440 | -72.59722 | 34556 ft | 430 kts | 102° |
| 2026-04-30 21:21 | -13.53238 | -72.56672 | 33431 ft | 450 kts | 103° |
| 2026-04-30 21:21 | -13.54885 | -72.50410 | 31077 ft | 456 kts | 104° |
| 2026-04-30 21:22 | -13.55714 | -72.47270 | 30161 ft | 456 kts | 104° |
| 2026-04-30 21:22 | -13.58165 | -72.37992 | 28567 ft | 443 kts | 104° |
| 2026-04-30 21:23 | -13.58972 | -72.34925 | 28039 ft | 433 kts | 104° |
| 2026-04-30 21:23 | -13.59742 | -72.31995 | 27567 ft | 418 kts | 104° |
| 2026-04-30 21:23 | -13.61221 | -72.26369 | 26720 ft | 406 kts | 104° |
| 2026-04-30 21:24 | -13.61957 | -72.23572 | 26322 ft | 404 kts | 105° |
| 2026-04-30 21:24 | -13.62688 | -72.20793 | 25898 ft | 402 kts | 105° |
| 2026-04-30 21:24 | -13.63415 | -72.18027 | 25478 ft | 399 kts | 105° |
| 2026-04-30 21:24 | -13.64135 | -72.15282 | 25038 ft | 397 kts | 105° |
| 2026-04-30 21:25 | -13.65561 | -72.09815 | 24149 ft | 395 kts | 105° |
| 2026-04-30 21:25 | -13.66272 | -72.07093 | 23664 ft | 394 kts | 105° |
| 2026-04-30 21:25 | -13.66979 | -72.04384 | 23165 ft | 389 kts | 105° |
| 2026-04-30 21:26 | -13.68475 | -71.99192 | 22261 ft | 372 kts | 112° |
| 2026-04-30 21:26 | -13.69533 | -71.96813 | 21809 ft | 368 kts | 118° |
| 2026-04-30 21:27 | -13.72095 | -71.92304 | 20894 ft | 362 kts | 121° |
| 2026-04-30 21:27 | -13.73373 | -71.90082 | 20481 ft | 360 kts | 121° |
| 2026-04-30 21:27 | -13.74625 | -71.87902 | 20327 ft | 344 kts | 121° |
| 2026-04-30 21:28 | -13.76884 | -71.83786 | 19639 ft | 320 kts | 111° |
| 2026-04-30 21:28 | -13.77470 | -71.81590 | 19397 ft | 319 kts | 98° |
| 2026-04-30 21:28 | -13.77143 | -71.77069 | 18608 ft | 317 kts | 72° |
| 2026-04-30 21:29 | -13.76264 | -71.75010 | 18048 ft | 314 kts | 59° |
| 2026-04-30 21:29 | -13.71365 | -71.70762 | 16512 ft | 304 kts | 19° |
| 2026-04-30 21:30 | -13.67304 | -71.70157 | 15759 ft | 291 kts | 355° |
| 2026-04-30 21:31 | -13.61938 | -71.72331 | 14713 ft | 272 kts | 321° |
| 2026-04-30 21:31 | -13.59563 | -71.75235 | 13922 ft | 266 kts | 299° |
| 2026-04-30 21:32 | -13.58101 | -71.78795 | 12879 ft | 271 kts | 293° |
| 2026-04-30 21:32 | -13.57410 | -71.80553 | 12711 ft | 257 kts | 294° |
| 2026-04-30 21:32 | -13.56767 | -71.82207 | 12672 ft | 241 kts | 292° |
| 2026-04-30 21:32 | -13.56224 | -71.83759 | 12474 ft | 224 kts | 291° |
| 2026-04-30 21:33 | -13.55727 | -71.85214 | 12163 ft | 206 kts | 294° |
| 2026-04-30 21:33 | -13.54498 | -71.87565 | 11537 ft | 172 kts | 297° |
| 2026-04-30 21:33 | -13.54122 | -71.88711 | 11343 ft | 168 kts | 284° |
| 2026-04-30 21:34 | -13.53990 | -71.89901 | 11135 ft | 167 kts | 275° |
| 2026-04-30 21:34 | -13.53744 | -71.92244 | 10748 ft | 164 kts | 277° |
| 2026-04-30 21:34 | -13.53626 | -71.93329 | 10764 ft | 136 kts | 273° |
| 2026-04-30 21:35 | -13.53545 | -71.94136 | 10801 ft | 88 kts | 278° |
| 2026-04-30 21:35 | -13.53503 | -71.94490 | 10821 ft | 17 kts | 267° |
| 2026-04-30 21:35 | -13.53502 | -71.94576 | 10826 ft | 10 kts | 274° |
| 2026-04-30 21:35 | -13.53492 | -71.94649 | 10830 ft | 11 kts | 277° |
| 2026-04-30 21:36 | -13.53484 | -71.94729 | 10832 ft | 14 kts | 275° |
| 2026-04-30 21:36 | -13.53483 | -71.94846 | 10848 ft | 16 kts | 262° |
| 2026-04-30 21:37 | -13.53617 | -71.94808 | 10833 ft | 17 kts | 97° |
| 2026-04-30 21:37 | -13.53630 | -71.94674 | 10826 ft | 21 kts | 96° |
| 2026-04-30 21:37 | -13.53644 | -71.94543 | 10822 ft | 17 kts | 96° |
| 2026-04-30 21:37 | -13.53681 | -71.94454 | 10817 ft | 13 kts | 147° |
| 2026-04-30 21:38 | -13.53740 | -71.94411 | 10815 ft | 0 kts | 145° |